sensor_id;sensor_type;location;lat;lon;timestamp;P1;durP1;ratioP1;P2;durP2;ratioP2
73015;SDS011;61893;50.074;14.440;2023-03-12T00:01:55;13.97;;;6.53;;
73015;SDS011;61893;50.074;14.440;2023-03-12T00:04:29;14.17;;;6.30;;
73015;SDS011;61893;50.074;14.440;2023-03-12T00:10:46;16.20;;;7.07;;
73015;SDS011;61893;50.074;14.440;2023-03-12T00:13:24;14.33;;;7.30;;
73015;SDS011;61893;50.074;14.440;2023-03-12T00:16:32;14.57;;;6.83;;
73015;SDS011;61893;50.074;14.440;2023-03-12T00:22:16;13.63;;;6.50;;
73015;SDS011;61893;50.074;14.440;2023-03-12T00:24:54;13.60;;;6.53;;
73015;SDS011;61893;50.074;14.440;2023-03-12T00:27:36;14.47;;;7.17;;
73015;SDS011;61893;50.074;14.440;2023-03-12T00:30:26;13.10;;;6.80;;
73015;SDS011;61893;50.074;14.440;2023-03-12T00:33:23;13.73;;;7.10;;
73015;SDS011;61893;50.074;14.440;2023-03-12T00:36:51;15.37;;;6.90;;
73015;SDS011;61893;50.074;14.440;2023-03-12T00:39:29;14.67;;;7.67;;
73015;SDS011;61893;50.074;14.440;2023-03-12T00:45:40;15.77;;;6.20;;
73015;SDS011;61893;50.074;14.440;2023-03-12T00:48:07;11.60;;;6.33;;
73015;SDS011;61893;50.074;14.440;2023-03-12T00:51:00;15.17;;;7.17;;
73015;SDS011;61893;50.074;14.440;2023-03-12T01:14:07;16.93;;;7.27;;
73015;SDS011;61893;50.074;14.440;2023-03-12T01:16:44;10.93;;;6.67;;
73015;SDS011;61893;50.074;14.440;2023-03-12T01:19:37;13.77;;;6.60;;
73015;SDS011;61893;50.074;14.440;2023-03-12T01:22:24;17.20;;;8.00;;
73015;SDS011;61893;50.074;14.440;2023-03-12T01:24:57;15.52;;;7.03;;
73015;SDS011;61893;50.074;14.440;2023-03-12T01:35:23;17.43;;;6.73;;
73015;SDS011;61893;50.074;14.440;2023-03-12T01:38:00;15.03;;;6.40;;
73015;SDS011;61893;50.074;14.440;2023-03-12T01:41:42;12.00;;;6.03;;
73015;SDS011;61893;50.074;14.440;2023-03-12T01:48:02;12.00;;;5.20;;
73015;SDS011;61893;50.074;14.440;2023-03-12T01:51:34;17.20;;;5.73;;
73015;SDS011;61893;50.074;14.440;2023-03-12T01:54:37;14.07;;;5.93;;
73015;SDS011;61893;50.074;14.440;2023-03-12T01:58:06;9.33;;;5.13;;
73015;SDS011;61893;50.074;14.440;2023-03-12T02:04:51;12.07;;;5.10;;
73015;SDS011;61893;50.074;14.440;2023-03-12T02:08:11;11.13;;;5.33;;
73015;SDS011;61893;50.074;14.440;2023-03-12T02:11:26;10.20;;;5.63;;
73015;SDS011;61893;50.074;14.440;2023-03-12T02:14:16;12.57;;;4.90;;
73015;SDS011;61893;50.074;14.440;2023-03-12T02:17:26;10.67;;;4.90;;
73015;SDS011;61893;50.074;14.440;2023-03-12T02:28:29;9.60;;;4.73;;
73015;SDS011;61893;50.074;14.440;2023-03-12T02:31:53;8.07;;;4.43;;
73015;SDS011;61893;50.074;14.440;2023-03-12T02:38:40;9.37;;;5.07;;
73015;SDS011;61893;50.074;14.440;2023-03-12T02:44:59;9.57;;;4.40;;
73015;SDS011;61893;50.074;14.440;2023-03-12T02:50:30;13.00;;;5.97;;
73015;SDS011;61893;50.074;14.440;2023-03-12T02:54:14;12.17;;;5.37;;
73015;SDS011;61893;50.074;14.440;2023-03-12T02:57:38;10.13;;;4.17;;
73015;SDS011;61893;50.074;14.440;2023-03-12T03:01:07;11.73;;;5.20;;
73015;SDS011;61893;50.074;14.440;2023-03-12T03:04:23;10.37;;;5.03;;
73015;SDS011;61893;50.074;14.440;2023-03-12T03:07:47;9.47;;;4.47;;
73015;SDS011;61893;50.074;14.440;2023-03-12T03:14:37;11.80;;;6.67;;
73015;SDS011;61893;50.074;14.440;2023-03-12T03:22:46;11.03;;;5.23;;
73015;SDS011;61893;50.074;14.440;2023-03-12T03:25:38;8.40;;;4.47;;
73015;SDS011;61893;50.074;14.440;2023-03-12T03:29:17;8.13;;;4.33;;
73015;SDS011;61893;50.074;14.440;2023-03-12T03:32:22;10.60;;;4.40;;
73015;SDS011;61893;50.074;14.440;2023-03-12T03:36:04;8.50;;;5.07;;
73015;SDS011;61893;50.074;14.440;2023-03-12T03:39:32;10.23;;;4.40;;
73015;SDS011;61893;50.074;14.440;2023-03-12T03:49:01;10.82;;;4.10;;
73015;SDS011;61893;50.074;14.440;2023-03-12T03:52:06;8.38;;;3.97;;
73015;SDS011;61893;50.074;14.440;2023-03-12T03:55:34;7.13;;;3.97;;
73015;SDS011;61893;50.074;14.440;2023-03-12T03:58:42;8.77;;;4.00;;
73015;SDS011;61893;50.074;14.440;2023-03-12T04:01:52;8.43;;;4.17;;
73015;SDS011;61893;50.074;14.440;2023-03-12T04:06:02;9.15;;;4.43;;
73015;SDS011;61893;50.074;14.440;2023-03-12T04:18:34;8.03;;;4.93;;
73015;SDS011;61893;50.074;14.440;2023-03-12T04:25:44;10.17;;;4.50;;
73015;SDS011;61893;50.074;14.440;2023-03-12T04:32:45;5.90;;;3.87;;
73015;SDS011;61893;50.074;14.440;2023-03-12T04:36:22;7.03;;;3.90;;
73015;SDS011;61893;50.074;14.440;2023-03-12T04:43:51;10.73;;;4.30;;
73015;SDS011;61893;50.074;14.440;2023-03-12T04:50:32;6.03;;;3.70;;
73015;SDS011;61893;50.074;14.440;2023-03-12T04:58:01;8.27;;;4.07;;
73015;SDS011;61893;50.074;14.440;2023-03-12T05:01:10;9.13;;;3.43;;
73015;SDS011;61893;50.074;14.440;2023-03-12T05:04:31;9.60;;;3.57;;
73015;SDS011;61893;50.074;14.440;2023-03-12T05:07:11;7.60;;;3.97;;
73015;SDS011;61893;50.074;14.440;2023-03-12T05:10:35;8.47;;;3.93;;
73015;SDS011;61893;50.074;14.440;2023-03-12T05:17:09;11.98;;;4.13;;
73015;SDS011;61893;50.074;14.440;2023-03-12T05:23:53;7.27;;;4.10;;
73015;SDS011;61893;50.074;14.440;2023-03-12T05:26:37;7.43;;;4.53;;
73015;SDS011;61893;50.074;14.440;2023-03-12T05:29:35;8.83;;;4.60;;
73015;SDS011;61893;50.074;14.440;2023-03-12T05:32:19;7.13;;;4.07;;
73015;SDS011;61893;50.074;14.440;2023-03-12T05:34:51;8.23;;;4.10;;
73015;SDS011;61893;50.074;14.440;2023-03-12T05:37:26;9.30;;;4.63;;
73015;SDS011;61893;50.074;14.440;2023-03-12T05:40:36;12.10;;;4.20;;
73015;SDS011;61893;50.074;14.440;2023-03-12T05:43:23;12.77;;;4.13;;
73015;SDS011;61893;50.074;14.440;2023-03-12T05:46:48;8.67;;;3.90;;
73015;SDS011;61893;50.074;14.440;2023-03-12T05:49:27;8.60;;;4.43;;
73015;SDS011;61893;50.074;14.440;2023-03-12T05:52:28;9.43;;;4.27;;
73015;SDS011;61893;50.074;14.440;2023-03-12T05:55:42;10.07;;;4.37;;
73015;SDS011;61893;50.074;14.440;2023-03-12T06:54:06;9.47;;;4.37;;
73015;SDS011;61893;50.074;14.440;2023-03-12T06:56:39;10.40;;;4.78;;
73015;SDS011;61893;50.074;14.440;2023-03-12T06:59:21;7.77;;;4.43;;
73015;SDS011;61893;50.074;14.440;2023-03-12T07:03:05;9.40;;;4.83;;
73015;SDS011;61893;50.074;14.440;2023-03-12T07:05:42;7.03;;;4.17;;
73015;SDS011;61893;50.074;14.440;2023-03-12T07:08:33;10.35;;;4.75;;
73015;SDS011;61893;50.074;14.440;2023-03-12T07:11:59;8.23;;;4.40;;
73015;SDS011;61893;50.074;14.440;2023-03-12T07:14:26;8.67;;;4.83;;
73015;SDS011;61893;50.074;14.440;2023-03-12T09:19:59;5.68;;;2.53;;
73015;SDS011;61893;50.074;14.440;2023-03-12T09:47:13;5.57;;;1.80;;
73015;SDS011;61893;50.074;14.440;2023-03-12T09:49:56;2.95;;;1.50;;
73015;SDS011;61893;50.074;14.440;2023-03-12T10:27:54;4.30;;;2.07;;
73015;SDS011;61893;50.074;14.440;2023-03-12T10:35:46;11.07;;;2.35;;
73015;SDS011;61893;50.074;14.440;2023-03-12T10:38:23;3.23;;;1.80;;
73015;SDS011;61893;50.074;14.440;2023-03-12T10:49:43;3.20;;;1.83;;
73015;SDS011;61893;50.074;14.440;2023-03-12T12:54:47;4.87;;;2.40;;
73015;SDS011;61893;50.074;14.440;2023-03-12T12:57:41;5.35;;;2.60;;
73015;SDS011;61893;50.074;14.440;2023-03-12T13:14:35;18.80;;;2.50;;
73015;SDS011;61893;50.074;14.440;2023-03-12T13:18:00;6.03;;;2.30;;
73015;SDS011;61893;50.074;14.440;2023-03-12T13:21:07;4.90;;;2.50;;
73015;SDS011;61893;50.074;14.440;2023-03-12T13:34:57;3.57;;;2.23;;
73015;SDS011;61893;50.074;14.440;2023-03-12T13:48:02;3.90;;;2.20;;
73015;SDS011;61893;50.074;14.440;2023-03-12T13:50:48;4.37;;;2.23;;
73015;SDS011;61893;50.074;14.440;2023-03-12T14:21:16;3.40;;;2.17;;
73015;SDS011;61893;50.074;14.440;2023-03-12T14:24:40;5.83;;;2.37;;
73015;SDS011;61893;50.074;14.440;2023-03-12T14:27:42;4.63;;;2.27;;
73015;SDS011;61893;50.074;14.440;2023-03-12T14:33:25;4.57;;;2.23;;
73015;SDS011;61893;50.074;14.440;2023-03-12T14:36:41;5.93;;;2.50;;
73015;SDS011;61893;50.074;14.440;2023-03-12T14:39:38;8.27;;;2.70;;
73015;SDS011;61893;50.074;14.440;2023-03-12T14:45:29;4.63;;;2.70;;
73015;SDS011;61893;50.074;14.440;2023-03-12T14:47:58;8.83;;;2.30;;
73015;SDS011;61893;50.074;14.440;2023-03-12T14:50:29;5.17;;;2.20;;
73015;SDS011;61893;50.074;14.440;2023-03-12T14:53:12;5.70;;;2.60;;
73015;SDS011;61893;50.074;14.440;2023-03-12T15:00:28;5.10;;;2.07;;
73015;SDS011;61893;50.074;14.440;2023-03-12T15:03:13;4.60;;;2.37;;
73015;SDS011;61893;50.074;14.440;2023-03-12T15:05:44;6.30;;;2.20;;
73015;SDS011;61893;50.074;14.440;2023-03-12T15:08:24;4.47;;;2.33;;
73015;SDS011;61893;50.074;14.440;2023-03-12T15:11:03;5.90;;;2.40;;
73015;SDS011;61893;50.074;14.440;2023-03-12T15:14:44;4.83;;;2.40;;
73015;SDS011;61893;50.074;14.440;2023-03-12T15:17:24;7.03;;;2.67;;
73015;SDS011;61893;50.074;14.440;2023-03-12T15:20:13;6.33;;;2.43;;
73015;SDS011;61893;50.074;14.440;2023-03-12T15:22:43;5.97;;;2.42;;
73015;SDS011;61893;50.074;14.440;2023-03-12T15:25:28;6.67;;;2.70;;
73015;SDS011;61893;50.074;14.440;2023-03-12T15:31:11;5.68;;;2.70;;
73015;SDS011;61893;50.074;14.440;2023-03-12T15:34:00;5.37;;;2.50;;
73015;SDS011;61893;50.074;14.440;2023-03-12T15:37:16;6.33;;;2.73;;
73015;SDS011;61893;50.074;14.440;2023-03-12T15:40:56;5.03;;;2.60;;
73015;SDS011;61893;50.074;14.440;2023-03-12T15:43:50;5.93;;;2.33;;
73015;SDS011;61893;50.074;14.440;2023-03-12T15:47:13;7.93;;;2.50;;
73015;SDS011;61893;50.074;14.440;2023-03-12T15:56:26;6.50;;;2.50;;
73015;SDS011;61893;50.074;14.440;2023-03-12T16:02:56;7.73;;;3.47;;
73015;SDS011;61893;50.074;14.440;2023-03-12T16:05:38;7.03;;;3.10;;
73015;SDS011;61893;50.074;14.440;2023-03-12T16:17:21;7.78;;;2.90;;
73015;SDS011;61893;50.074;14.440;2023-03-12T16:19:54;6.23;;;2.73;;
73015;SDS011;61893;50.074;14.440;2023-03-12T16:22:24;3.93;;;2.50;;
73015;SDS011;61893;50.074;14.440;2023-03-12T16:25:26;6.40;;;2.78;;
73015;SDS011;61893;50.074;14.440;2023-03-12T16:27:54;7.70;;;2.50;;
73015;SDS011;61893;50.074;14.440;2023-03-12T16:54:12;4.47;;;2.50;;
73015;SDS011;61893;50.074;14.440;2023-03-12T17:00:15;3.93;;;2.30;;
73015;SDS011;61893;50.074;14.440;2023-03-12T17:03:22;4.17;;;2.47;;
73015;SDS011;61893;50.074;14.440;2023-03-12T17:06:53;6.57;;;2.40;;
73015;SDS011;61893;50.074;14.440;2023-03-12T17:09:55;4.47;;;2.40;;
73015;SDS011;61893;50.074;14.440;2023-03-12T17:12:28;7.37;;;2.77;;
73015;SDS011;61893;50.074;14.440;2023-03-12T17:20:07;7.07;;;2.67;;
73015;SDS011;61893;50.074;14.440;2023-03-12T17:23:13;5.67;;;2.60;;
73015;SDS011;61893;50.074;14.440;2023-03-12T17:25:43;7.60;;;3.00;;
73015;SDS011;61893;50.074;14.440;2023-03-12T17:28:17;4.47;;;2.70;;
73015;SDS011;61893;50.074;14.440;2023-03-12T17:31:28;7.30;;;2.70;;
73015;SDS011;61893;50.074;14.440;2023-03-12T17:34:37;5.30;;;3.03;;
73015;SDS011;61893;50.074;14.440;2023-03-12T17:37:11;6.63;;;3.60;;
73015;SDS011;61893;50.074;14.440;2023-03-12T17:40:01;8.50;;;3.47;;
73015;SDS011;61893;50.074;14.440;2023-03-12T17:42:34;6.43;;;3.47;;
73015;SDS011;61893;50.074;14.440;2023-03-12T20:10:10;4.77;;;3.00;;
73015;SDS011;61893;50.074;14.440;2023-03-12T20:12:39;5.23;;;3.40;;
73015;SDS011;61893;50.074;14.440;2023-03-12T20:15:19;5.53;;;3.30;;
73015;SDS011;61893;50.074;14.440;2023-03-12T20:17:48;4.50;;;2.90;;
73015;SDS011;61893;50.074;14.440;2023-03-12T20:34:00;5.60;;;3.50;;
73015;SDS011;61893;50.074;14.440;2023-03-12T20:36:30;5.13;;;3.40;;
73015;SDS011;61893;50.074;14.440;2023-03-12T20:39:42;4.97;;;3.47;;
73015;SDS011;61893;50.074;14.440;2023-03-12T21:21:43;7.77;;;3.83;;
73015;SDS011;61893;50.074;14.440;2023-03-12T22:31:39;8.93;;;5.70;;
73015;SDS011;61893;50.074;14.440;2023-03-12T22:34:13;12.73;;;6.47;;
73015;SDS011;61893;50.074;14.440;2023-03-12T22:37:20;9.37;;;6.30;;
73015;SDS011;61893;50.074;14.440;2023-03-12T22:40:10;12.30;;;6.53;;
73015;SDS011;61893;50.074;14.440;2023-03-12T22:43:06;10.03;;;6.17;;
73015;SDS011;61893;50.074;14.440;2023-03-12T22:48:51;11.97;;;6.40;;
73015;SDS011;61893;50.074;14.440;2023-03-12T23:22:59;12.07;;;5.57;;
73015;SDS011;61893;50.074;14.440;2023-03-12T23:25:25;10.47;;;5.37;;
73015;SDS011;61893;50.074;14.440;2023-03-12T23:33:15;10.03;;;5.50;;
